Time;durP1;ratioP1;P1;durP2;ratioP2;P2;SDS_P1;SDS_P2;PMS_P1;PMS_P2;Temp;Humidity;BMP_temperature;BMP_pressure;BME280_temperature;BME280_humidity;BME280_pressure;Samples;Min_cycle;Max_cycle;Signal;HPM_P1;HPM_P2
2024/03/09 00:01:34;;;;;;;126.33;69.70;;;5.00;99.90;7.00;96546.00;;;;4965501;28;20207;-84
2024/03/09 00:04:23;;;;;;;229.10;90.10;;;4.90;99.90;7.10;96544.00;;;;4972687;28;20218;-84
2024/03/09 00:07:12;;;;;;;260.90;85.17;;;4.80;99.90;7.30;96543.00;;;;4972433;28;20242;-84
2024/03/09 00:10:01;;;;;;;103.00;63.57;;;4.80;99.90;7.30;96546.00;;;;4973458;28;20609;-85
2024/03/09 00:12:51;;;;;;;190.13;81.17;;;4.80;99.90;7.40;96550.00;;;;4969198;28;20222;-85
2024/03/09 00:15:41;;;;;;;198.00;78.73;;;5.90;99.90;7.30;96536.00;;;;4971411;28;20211;-84
2024/03/09 00:18:32;;;;;;;237.80;91.37;;;4.80;99.90;7.40;96526.00;;;;4973245;28;20732;-84
2024/03/09 00:21:21;;;;;;;81.27;57.77;;;4.80;99.90;7.40;96517.00;;;;4981962;28;20649;-85
2024/03/09 00:24:12;;;;;;;218.57;83.33;;;4.80;99.90;7.50;96519.00;;;;4971086;28;20237;-84
2024/03/09 00:27:02;;;;;;;230.57;86.70;;;4.80;99.90;7.00;96514.00;;;;4980781;28;20606;-84
2024/03/09 00:29:54;;;;;;;273.33;87.50;;;4.80;99.90;7.40;96517.00;;;;4970359;28;20218;-84
2024/03/09 00:32:45;;;;;;;254.73;83.17;;;4.80;99.90;7.20;96504.00;;;;4967632;28;20207;-85
2024/03/09 00:35:34;;;;;;;221.20;80.77;;;4.80;99.90;7.50;96507.00;;;;4980276;28;20206;-85
2024/03/09 00:38:24;;;;;;;269.93;90.63;;;4.90;99.90;7.50;96500.00;;;;4979652;28;20217;-84
2024/03/09 00:41:13;;;;;;;278.87;93.00;;;4.90;99.90;7.60;96496.00;;;;4964486;28;20669;-84
2024/03/09 00:44:03;;;;;;;272.57;86.40;;;4.90;99.90;7.50;96492.00;;;;4973310;28;20227;-84
2024/03/09 00:46:52;;;;;;;136.00;69.83;;;4.90;99.90;7.50;96494.00;;;;4967590;28;20235;-86
2024/03/09 00:49:42;;;;;;;193.53;79.83;;;4.90;99.90;7.50;96491.00;;;;4979914;28;20203;-84
2024/03/09 00:52:32;;;;;;;142.13;74.63;;;4.90;99.90;7.50;96491.00;;;;4972490;28;20203;-84
2024/03/09 00:55:22;;;;;;;153.53;87.73;;;4.90;99.90;7.50;96491.00;;;;4975788;28;20613;-84
2024/03/09 00:58:14;;;;;;;111.70;64.20;;;4.90;99.90;7.50;96488.00;;;;4971616;28;20231;-84
2024/03/09 01:01:04;;;;;;;107.00;66.77;;;4.90;99.90;7.60;96480.00;;;;4978209;28;20706;-85
2024/03/09 01:03:55;;;;;;;107.47;64.87;;;5.00;99.90;7.60;96479.00;;;;4972452;28;20235;-84
2024/03/09 01:06:45;;;;;;;112.67;67.20;;;5.00;99.90;7.60;96468.00;;;;4980232;28;20223;-85
2024/03/09 01:09:34;;;;;;;100.50;63.70;;;5.00;99.90;7.60;96483.00;;;;4979958;28;20213;-84
2024/03/09 01:12:26;;;;;;;122.37;70.63;;;5.00;99.90;7.50;96468.00;;;;4977254;28;20211;-85
2024/03/09 01:15:15;;;;;;;127.93;80.10;;;5.00;99.90;7.50;96463.00;;;;4979906;28;20208;-85
2024/03/09 01:18:04;;;;;;;90.07;59.83;;;5.00;99.90;7.50;96467.00;;;;4972932;28;20219;-84
2024/03/09 01:20:54;;;;;;;83.53;58.57;;;4.90;99.90;7.50;96465.00;;;;4975462;28;20207;-85
2024/03/09 01:23:44;;;;;;;83.03;58.57;;;4.90;99.90;7.60;96465.00;;;;4982337;28;20681;-85
2024/03/09 01:26:33;;;;;;;83.30;58.70;;;5.00;99.90;7.20;96452.00;;;;4976361;28;20241;-84
2024/03/09 01:29:23;;;;;;;92.80;63.87;;;4.90;99.90;7.30;96447.00;;;;4976271;28;20208;-85
2024/03/09 01:32:12;;;;;;;73.80;54.73;;;4.90;99.90;7.40;96448.00;;;;4973753;28;20215;-85
2024/03/09 01:35:01;;;;;;;73.87;54.50;;;4.90;99.90;7.00;96434.00;;;;4977986;28;21023;-84
2024/03/09 01:37:50;;;;;;;77.30;57.33;;;4.80;99.90;7.10;96431.00;;;;4969961;28;20231;-85
2024/03/09 01:40:41;;;;;;;84.37;59.47;;;4.80;99.90;7.30;96428.00;;;;4976027;28;20206;-85
2024/03/09 01:43:29;;;;;;;91.40;61.20;;;4.80;99.90;7.40;96431.00;;;;4980611;28;20223;-85
2024/03/09 01:46:20;;;;;;;88.50;61.37;;;4.70;99.90;7.40;96422.00;;;;4973425;28;20219;-84
2024/03/09 01:49:09;;;;;;;77.03;56.67;;;4.80;99.90;7.10;96416.00;;;;4973627;28;20218;-84
2024/03/09 01:51:58;;;;;;;70.23;53.10;;;4.70;99.90;7.20;96412.00;;;;4970594;28;20685;-85
2024/03/09 01:54:49;;;;;;;65.27;52.20;;;4.70;99.90;7.20;96410.00;;;;4968387;28;20665;-85
2024/03/09 01:57:39;;;;;;;67.17;52.40;;;4.70;99.90;7.30;96417.00;;;;4979464;28;20234;-85
2024/03/09 02:00:28;;;;;;;102.03;68.43;;;4.70;99.90;7.40;96420.00;;;;4974609;28;20211;-86
2024/03/09 02:03:19;;;;;;;89.17;61.20;;;4.70;99.90;7.40;96416.00;;;;4975779;28;20220;-83
2024/03/09 02:06:11;;;;;;;70.37;54.30;;;4.80;99.90;7.40;96419.00;;;;4967016;28;20231;-84
2024/03/09 02:09:07;;;;;;;74.47;55.57;;;4.80;99.90;7.40;96411.00;;;;4976795;28;20245;-85
2024/03/09 02:12:00;;;;;;;43.23;39.00;;;4.80;99.90;7.40;96411.00;;;;4968367;28;20203;-84
2024/03/09 02:14:51;;;;;;;53.03;47.10;;;4.80;99.90;7.40;96403.00;;;;4973020;28;20201;-85
2024/03/09 02:17:39;;;;;;;69.80;53.63;;;4.80;99.90;7.40;96407.00;;;;4976624;28;20231;-85
2024/03/09 02:20:30;;;;;;;101.03;68.37;;;4.80;99.90;7.50;96406.00;;;;4976276;28;20210;-85
2024/03/09 02:23:21;;;;;;;91.63;64.00;;;4.90;99.90;7.50;96411.00;;;;4977513;28;20227;-84
2024/03/09 02:26:11;;;;;;;70.97;54.60;;;4.90;99.90;7.50;96411.00;;;;4975103;28;20227;-85
2024/03/09 02:29:00;;;;;;;73.17;55.33;;;4.90;99.90;7.20;96399.00;;;;4968411;28;20214;-85
2024/03/09 02:31:49;;;;;;;74.87;55.40;;;4.90;99.90;7.50;96404.00;;;;4975850;28;20218;-85
2024/03/09 02:34:38;;;;;;;73.23;55.07;;;4.80;99.90;7.50;96407.00;;;;4973190;28;20590;-85
2024/03/09 02:37:27;;;;;;;101.93;66.40;;;4.90;99.90;7.50;96397.00;;;;4972972;28;20280;-85
2024/03/09 02:40:18;;;;;;;87.10;60.63;;;4.90;99.90;7.60;96403.00;;;;4974784;28;20219;-85
2024/03/09 02:43:11;;;;;;;86.00;61.10;;;4.90;99.90;7.30;96399.00;;;;4977047;28;20227;-85
2024/03/09 02:46:01;;;;;;;78.70;57.63;;;4.80;99.90;7.50;96394.00;;;;4965622;28;20195;-86
2024/03/09 02:48:50;;;;;;;98.27;64.40;;;4.90;99.90;7.50;96405.00;;;;4972615;28;20195;-85
2024/03/09 02:51:39;;;;;;;39.63;35.83;;;4.90;99.90;7.60;96403.00;;;;4974395;28;20218;-85
2024/03/09 02:54:28;;;;;;;61.10;49.83;;;4.90;99.90;7.50;96393.00;;;;4974447;28;20207;-85
2024/03/09 02:57:17;;;;;;;74.50;56.60;;;4.90;99.90;7.40;96399.00;;;;4976953;28;20231;-86
2024/03/09 03:00:11;;;;;;;63.70;51.57;;;4.90;99.90;7.50;96396.00;;;;4973169;28;20211;-87
2024/03/09 03:06:08;;;;;;;61.50;51.43;;;4.90;99.90;7.50;96391.00;;;;4970410;28;20215;-85
2024/03/09 03:08:59;;;;;;;71.00;55.77;;;4.90;99.90;7.20;96384.00;;;;4977252;28;20210;-86
2024/03/09 03:11:49;;;;;;;73.87;55.73;;;4.90;99.90;7.10;96387.00;;;;4972394;28;20199;-85
2024/03/09 03:14:39;;;;;;;62.37;51.17;;;4.80;99.90;7.30;96388.00;;;;4978684;28;20210;-85
2024/03/09 03:17:29;;;;;;;82.57;58.83;;;4.80;99.90;7.40;96390.00;;;;4975452;28;20730;-85
2024/03/09 03:20:21;;;;;;;96.00;65.77;;;4.80;99.90;7.40;96398.00;;;;4973161;28;20206;-85
2024/03/09 03:23:12;;;;;;;66.77;52.13;;;4.80;99.90;7.20;96392.00;;;;4980685;28;20235;-85
2024/03/09 03:26:01;;;;;;;68.83;53.87;;;4.70;99.90;7.30;96385.00;;;;4970379;28;20211;-86
2024/03/09 03:28:52;;;;;;;75.10;57.00;;;4.80;99.90;7.20;96388.00;;;;4973869;28;20207;-85
2024/03/09 03:31:41;;;;;;;61.13;51.37;;;4.70;99.90;6.90;96380.00;;;;4975320;28;20219;-86
2024/03/09 03:34:33;;;;;;;81.87;57.40;;;4.70;99.90;7.10;96380.00;;;;4970643;28;20215;-85
2024/03/09 03:37:22;;;;;;;68.80;54.10;;;4.70;99.90;7.20;96380.00;;;;4973945;28;20235;-85
2024/03/09 03:40:14;;;;;;;77.23;56.97;;;4.70;99.90;7.20;96387.00;;;;4975337;28;20218;-86
2024/03/09 03:43:04;;;;;;;83.40;57.50;;;4.70;99.90;7.30;96389.00;;;;4971665;28;20209;-85
2024/03/09 03:45:53;;;;;;;91.67;61.70;;;4.60;99.90;7.30;96392.00;;;;4964712;28;20207;-85
2024/03/09 03:48:44;;;;;;;100.00;65.27;;;4.70;99.90;7.30;96385.00;;;;4971971;28;20210;-85
2024/03/09 03:51:35;;;;;;;118.10;68.53;;;4.70;99.90;7.10;96380.00;;;;4978858;28;20200;-86
2024/03/09 03:54:24;;;;;;;126.00;70.57;;;4.70;99.90;7.30;96387.00;;;;4977300;28;20210;-86
2024/03/09 03:57:13;;;;;;;120.07;68.37;;;4.70;99.90;7.20;96386.00;;;;4980465;28;20712;-86
2024/03/09 04:00:01;;;;;;;103.37;61.57;;;4.70;99.90;7.10;96380.00;;;;4972729;28;20218;-86
2024/03/09 04:02:50;;;;;;;115.53;67.23;;;3.10;99.90;6.70;96380.00;;;;4977134;28;20195;-86
2024/03/09 04:05:39;;;;;;;124.07;64.87;;;4.60;99.90;7.00;96373.00;;;;4975970;28;20226;-85
2024/03/09 04:08:30;;;;;;;131.23;71.17;;;4.50;99.90;7.10;96369.00;;;;4975286;28;20222;-85
2024/03/09 04:11:19;;;;;;;110.17;65.30;;;4.50;99.90;7.20;96384.00;;;;4973517;28;20203;-84
2024/03/09 04:14:09;;;;;;;100.93;59.13;;;4.60;99.90;7.20;96375.00;;;;4983360;28;20199;-85
2024/03/09 04:16:58;;;;;;;121.30;67.93;;;4.60;99.90;7.30;96372.00;;;;4980197;28;20234;-85
2024/03/09 04:19:47;;;;;;;122.83;66.20;;;4.70;99.90;6.90;96364.00;;;;4967049;28;20792;-85
2024/03/09 04:22:36;;;;;;;49.57;44.23;;;4.60;99.90;7.00;96364.00;;;;4980388;28;20211;-86
2024/03/09 04:25:27;;;;;;;98.60;66.17;;;4.60;99.90;7.20;96368.00;;;;4977774;28;20226;-85
2024/03/09 04:28:20;;;;;;;104.67;62.60;;;4.60;99.90;7.00;96375.00;;;;4984433;28;20214;-85
2024/03/09 04:31:09;;;;;;;114.07;65.73;;;4.60;99.90;6.80;96372.00;;;;4976382;28;20328;-84
2024/03/09 04:34:01;;;;;;;120.43;65.17;;;4.60;99.90;6.60;96363.00;;;;4969460;28;20203;-84
2024/03/09 04:36:50;;;;;;;122.03;67.13;;;4.50;99.90;6.70;96362.00;;;;4979976;28;20723;-85
2024/03/09 04:39:43;;;;;;;119.27;65.37;;;4.50;99.90;6.60;96366.00;;;;4977574;28;20593;-84
2024/03/09 04:42:33;;;;;;;140.53;72.23;;;4.50;99.90;6.60;96369.00;;;;4974211;28;20677;-84
2024/03/09 04:45:25;;;;;;;154.80;80.03;;;4.40;99.90;6.70;96378.00;;;;4972027;28;20242;-84
2024/03/09 04:48:14;;;;;;;129.97;67.03;;;4.40;99.90;6.70;96373.00;;;;4980966;28;20207;-84
2024/03/09 04:51:03;;;;;;;147.43;70.67;;;4.40;99.90;6.70;96373.00;;;;4978233;28;20217;-84
2024/03/09 04:53:52;;;;;;;158.67;74.60;;;4.40;99.90;6.80;96366.00;;;;4970348;28;20210;-85
2024/03/09 04:56:41;;;;;;;265.47;95.50;;;4.40;99.90;7.10;96370.00;;;;4971581;28;20227;-84
2024/03/09 04:59:32;;;;;;;320.90;113.90;;;4.50;99.90;7.10;96369.00;;;;4978302;28;20437;-85
2024/03/09 05:02:20;;;;;;;57.90;36.07;;;4.50;99.90;7.20;96361.00;;;;4980803;28;20474;-84
2024/03/09 05:05:09;;;;;;;318.50;113.13;;;4.50;99.90;7.30;96350.00;;;;4978498;28;20227;-85
2024/03/09 05:07:58;;;;;;;233.40;86.07;;;4.60;99.90;7.10;96366.00;;;;4970135;28;20459;-86
2024/03/09 05:10:47;;;;;;;231.37;104.03;;;4.60;99.90;7.20;96365.00;;;;4978626;28;20211;-86
2024/03/09 05:13:36;;;;;;;323.47;94.37;;;4.60;99.90;7.30;96362.00;;;;4979042;28;20219;-85
2024/03/09 05:16:28;;;;;;;224.90;87.43;;;4.60;99.90;7.20;96384.00;;;;4973326;28;20470;-85
2024/03/09 05:19:18;;;;;;;122.80;66.73;;;4.60;99.90;6.90;96370.00;;;;4978142;28;20211;-84
2024/03/09 05:22:07;;;;;;;129.93;63.43;;;4.60;99.90;7.10;96372.00;;;;4976629;28;20203;-85
2024/03/09 05:24:56;;;;;;;16.00;11.77;;;4.60;99.90;7.20;96375.00;;;;4972718;28;20231;-85
2024/03/09 05:27:46;;;;;;;119.43;46.40;;;4.60;99.90;7.30;96375.00;;;;4980236;28;20227;-84
2024/03/09 05:30:35;;;;;;;150.10;79.90;;;4.70;99.90;7.10;96371.00;;;;4977450;28;20965;-84
2024/03/09 05:33:27;;;;;;;204.27;84.00;;;4.60;99.90;7.10;96372.00;;;;4980100;28;20203;-85
2024/03/09 05:36:16;;;;;;;311.07;90.07;;;4.60;99.90;7.30;96372.00;;;;4978971;28;20227;-85
2024/03/09 05:39:06;;;;;;;296.67;85.77;;;4.60;99.90;7.20;96370.00;;;;4972413;28;20214;-83
2024/03/09 05:41:55;;;;;;;129.90;66.63;;;4.60;99.90;6.90;96375.00;;;;4971298;28;20794;-83
2024/03/09 05:44:45;;;;;;;91.83;60.77;;;4.60;99.90;6.90;96373.00;;;;4975921;28;20708;-84
2024/03/09 05:47:34;;;;;;;66.63;45.13;;;4.60;99.90;6.60;96367.00;;;;4973947;23;21027;-69
2024/03/09 05:50:28;;;;;;;56.70;43.67;;;4.50;99.90;7.00;96365.00;;;;4972153;28;20210;-68
2024/03/09 05:53:18;;;;;;;57.33;48.27;;;4.40;99.90;7.20;96376.00;;;;4990795;28;20751;-69
2024/03/09 05:56:07;;;;;;;44.23;39.43;;;4.50;99.90;6.90;96368.00;;;;4985151;28;20219;-70
2024/03/09 05:58:56;;;;;;;69.23;53.17;;;4.50;99.90;6.80;96372.00;;;;4985322;28;20591;-70
2024/03/09 06:01:45;;;;;;;55.03;46.17;;;4.50;99.90;6.60;96365.00;;;;4987262;28;20586;-70
2024/03/09 06:04:35;;;;;;;66.37;52.00;;;4.50;99.90;6.60;96365.00;;;;4989480;28;20206;-70
2024/03/09 06:07:26;;;;;;;49.83;38.87;;;4.50;99.90;6.70;96371.00;;;;4985728;28;20210;-68
2024/03/09 06:10:18;;;;;;;62.90;52.00;;;4.50;99.90;6.50;96381.00;;;;4987677;28;20217;-71
2024/03/09 06:13:07;;;;;;;46.83;42.03;;;4.50;99.90;6.30;96369.00;;;;4987058;28;20395;-71
2024/03/09 06:15:56;;;;;;;36.17;32.87;;;4.40;99.90;6.20;96373.00;;;;4982768;28;20229;-72
2024/03/09 06:18:47;;;;;;;50.83;43.77;;;4.40;99.90;6.20;96377.00;;;;4982326;28;20920;-71
2024/03/09 06:21:36;;;;;;;206.67;123.20;;;4.30;99.90;6.50;96384.00;;;;4918051;28;20225;-70
2024/03/09 06:24:30;;;;;;;135.10;85.27;;;4.40;99.90;6.60;96384.00;;;;4918835;28;20214;-69
2024/03/09 06:27:19;;;;;;;38.20;34.57;;;4.40;99.90;6.70;96392.00;;;;4969908;28;20304;-69
2024/03/09 06:30:13;;;;;;;41.70;37.40;;;4.50;99.90;6.90;96392.00;;;;4982975;28;20219;-69
2024/03/09 06:33:03;;;;;;;114.67;45.00;;;4.50;99.90;7.00;96401.00;;;;4954668;28;20846;-69
2024/03/09 06:35:53;;;;;;;16.80;9.50;;;4.50;99.90;6.90;96399.00;;;;4983397;28;20232;-69
2024/03/09 06:38:42;;;;;;;22.77;10.97;;;4.60;99.90;7.10;96392.00;;;;4986177;28;20280;-69
2024/03/09 06:41:32;;;;;;;141.00;53.40;;;4.60;99.90;7.10;96401.00;;;;4934907;28;20202;-68
2024/03/09 06:44:23;;;;;;;134.53;48.10;;;4.60;99.90;7.30;96404.00;;;;4919777;28;20731;-70
2024/03/09 06:47:13;;;;;;;119.07;43.43;;;4.70;99.90;7.30;96405.00;;;;4922978;28;20765;-70
2024/03/09 06:50:04;;;;;;;13.03;5.73;;;4.70;99.90;7.40;96405.00;;;;4986107;28;20235;-69
2024/03/09 06:52:53;;;;;;;23.90;10.70;;;4.80;99.90;7.50;96392.00;;;;4972774;28;20207;-69
2024/03/09 06:55:42;;;;;;;124.47;45.33;;;4.80;99.90;7.20;96393.00;;;;4919166;28;21039;-68
2024/03/09 06:58:33;;;;;;;90.97;33.77;;;4.80;99.90;7.30;96396.00;;;;4935121;28;20260;-67
2024/03/09 07:01:24;;;;;;;87.40;32.73;;;4.80;99.90;7.30;96405.00;;;;4934813;28;20214;-69
2024/03/09 07:04:13;;;;;;;85.47;33.37;;;4.80;99.90;7.30;96395.00;;;;4925032;28;20290;-69
2024/03/09 07:07:02;;;;;;;94.87;37.50;;;4.80;99.90;7.20;96408.00;;;;4941275;23;21927;-67
2024/03/09 07:09:51;;;;;;;66.87;25.43;;;4.90;99.90;6.90;96406.00;;;;4915022;28;22003;-67
2024/03/09 07:12:41;;;;;;;117.87;48.27;;;4.70;99.90;7.00;96409.00;;;;4918027;28;20222;-67
2024/03/09 07:15:31;;;;;;;124.93;50.37;;;4.80;99.90;7.00;96404.00;;;;4918416;28;20298;-67
2024/03/09 07:18:21;;;;;;;140.70;56.10;;;4.80;99.90;7.10;96408.00;;;;4898979;28;20230;-67
2024/03/09 07:21:11;;;;;;;49.10;21.17;;;4.80;99.90;7.40;96413.00;;;;4911824;28;20207;-67
2024/03/09 07:24:00;;;;;;;12.00;6.10;;;4.90;99.90;7.50;96405.00;;;;4956713;28;20207;-67
2024/03/09 07:26:49;;;;;;;91.33;36.90;;;4.90;99.90;7.50;96399.00;;;;4898961;28;20239;-67
2024/03/09 07:29:38;;;;;;;22.60;9.17;;;4.90;99.90;7.50;96403.00;;;;4941836;28;20211;-67
2024/03/09 07:32:29;;;;;;;19.90;9.00;;;5.00;99.90;7.50;96410.00;;;;4945827;28;20691;-66
2024/03/09 07:35:20;;;;;;;22.23;9.80;;;5.00;99.90;7.50;96407.00;;;;4940019;28;20212;-66
2024/03/09 07:38:09;;;;;;;13.77;6.93;;;5.00;99.90;7.60;96406.00;;;;4949459;28;20219;-66
2024/03/09 07:40:58;;;;;;;16.93;8.40;;;5.10;99.90;7.80;96389.00;;;;4939280;28;20851;-66
2024/03/09 07:43:47;;;;;;;17.73;9.10;;;5.10;99.90;7.70;96394.00;;;;4949811;28;20200;-66
2024/03/09 07:46:36;;;;;;;29.20;12.23;;;5.10;99.90;7.70;96388.00;;;;4942272;28;20229;-67
2024/03/09 07:49:26;;;;;;;31.43;13.00;;;5.10;99.90;7.60;96397.00;;;;4941341;28;20215;-66
2024/03/09 07:52:15;;;;;;;18.47;9.10;;;5.20;99.90;7.30;96397.00;;;;4947163;28;20600;-66
2024/03/09 07:55:05;;;;;;;16.03;8.17;;;5.10;99.90;7.20;96396.00;;;;4947873;28;20578;-66
2024/03/09 07:57:58;;;;;;;13.53;8.13;;;5.10;99.90;7.70;96392.00;;;;4949297;28;20240;-66
2024/03/09 08:00:49;;;;;;;15.37;8.27;;;5.10;99.90;7.70;96394.00;;;;4948318;28;20211;-66
2024/03/09 08:03:38;;;;;;;23.87;10.40;;;5.10;99.90;7.90;96394.00;;;;4949981;28;20332;-67
2024/03/09 08:06:29;;;;;;;22.93;11.03;;;5.20;99.90;7.80;96400.00;;;;4947037;28;20228;-68
2024/03/09 08:09:18;;;;;;;14.03;8.70;;;5.30;99.90;7.80;96391.00;;;;4947106;28;20219;-68
2024/03/09 08:12:08;;;;;;;19.27;10.40;;;5.30;99.90;7.80;96397.00;;;;4947529;28;20200;-68
2024/03/09 08:14:57;;;;;;;14.93;8.90;;;5.30;99.90;7.90;96393.00;;;;4952851;28;20204;-68
2024/03/09 08:17:48;;;;;;;16.57;9.87;;;5.40;99.90;8.00;96400.00;;;;4955476;28;20220;-69
2024/03/09 08:20:38;;;;;;;34.97;15.30;;;5.40;99.90;7.90;96394.00;;;;4950003;28;20204;-69
2024/03/09 08:23:28;;;;;;;20.60;11.90;;;5.40;99.90;8.00;96397.00;;;;4946133;28;20203;-68
2024/03/09 08:26:17;;;;;;;10.97;9.87;;;5.50;99.90;8.20;96394.00;;;;4954612;28;20226;-68
2024/03/09 08:29:06;;;;;;;16.97;15.37;;;5.50;99.90;8.10;96389.00;;;;4950944;28;20211;-69
2024/03/09 08:31:57;;;;;;;43.93;39.37;;;5.50;99.90;8.20;96391.00;;;;4947952;28;20204;-69
2024/03/09 08:34:45;;;;;;;107.13;72.47;;;5.50;99.90;7.70;96396.00;;;;4949106;28;20224;-69
2024/03/09 08:37:36;;;;;;;119.87;76.50;;;5.50;99.90;8.10;96383.00;;;;4949438;28;20227;-69
2024/03/09 08:40:26;;;;;;;143.83;86.50;;;5.50;99.90;8.20;96396.00;;;;4957039;28;20199;-70
2024/03/09 08:43:15;;;;;;;142.67;75.37;;;5.50;99.90;8.00;96394.00;;;;4953002;28;20212;-69
2024/03/09 08:46:05;;;;;;;152.17;76.20;;;5.50;99.90;8.20;96389.00;;;;4958089;28;20231;-69
2024/03/09 08:48:54;;;;;;;230.83;97.77;;;5.50;99.90;8.20;96389.00;;;;4946655;28;20247;-69
2024/03/09 08:51:42;;;;;;;158.63;77.27;;;5.50;99.90;8.30;96389.00;;;;4954239;28;20220;-69
2024/03/09 08:54:33;;;;;;;284.53;109.57;;;5.60;99.90;8.40;96383.00;;;;4948522;28;20209;-70
2024/03/09 08:57:23;;;;;;;298.30;98.43;;;5.70;99.90;8.20;96399.00;;;;4952297;28;20235;-69
2024/03/09 09:00:13;;;;;;;319.47;95.87;;;5.70;99.90;8.40;96379.00;;;;4942234;28;20220;-69
2024/03/09 09:03:05;;;;;;;336.13;89.10;;;5.70;99.90;8.30;96393.00;;;;4948110;28;20220;-69
2024/03/09 09:05:54;;;;;;;111.37;67.80;;;5.70;99.90;8.20;96394.00;;;;4951982;28;20228;-69
2024/03/09 09:08:42;;;;;;;77.40;59.60;;;5.70;99.90;8.30;96385.00;;;;4954027;28;20227;-69
2024/03/09 09:11:31;;;;;;;58.50;52.07;;;5.70;99.90;8.30;96402.00;;;;4965851;28;20212;-68
2024/03/09 09:14:23;;;;;;;34.47;31.47;;;5.70;99.90;8.30;96392.00;;;;4968576;28;20203;-69
2024/03/09 09:17:13;;;;;;;43.57;39.50;;;5.70;99.90;8.40;96390.00;;;;4953537;28;20223;-68
2024/03/09 09:20:03;;;;;;;47.50;42.87;;;5.70;99.90;8.40;96392.00;;;;4963326;28;20219;-68
2024/03/09 09:22:53;;;;;;;39.17;35.70;;;5.70;99.90;8.50;96387.00;;;;4969142;28;20217;-69
2024/03/09 09:25:42;;;;;;;42.23;38.47;;;5.60;99.90;8.40;96379.00;;;;4962974;28;20252;-68
2024/03/09 09:28:32;;;;;;;37.20;33.50;;;5.70;99.90;8.50;96381.00;;;;4963177;28;20204;-69
2024/03/09 09:31:22;;;;;;;35.73;32.60;;;6.00;99.90;8.20;96379.00;;;;4946826;28;20200;-69
2024/03/09 09:34:12;;;;;;;36.50;32.90;;;5.70;99.90;8.20;96381.00;;;;4952803;28;20215;-68
2024/03/09 09:37:01;;;;;;;34.20;31.30;;;5.60;99.90;8.30;96377.00;;;;4947562;28;20216;-69
2024/03/09 09:39:51;;;;;;;31.17;28.37;;;5.20;99.90;8.00;96379.00;;;;4954104;28;20688;-68
2024/03/09 09:42:40;;;;;;;46.83;42.03;;;5.60;99.90;7.90;96389.00;;;;4949819;28;20208;-68
2024/03/09 09:45:33;;;;;;;57.13;45.67;;;5.60;99.90;7.90;96376.00;;;;4931154;28;20215;-69
2024/03/09 09:48:24;;;;;;;31.87;28.77;;;5.60;99.90;8.30;96370.00;;;;4945024;28;20780;-69
2024/03/09 09:51:15;;;;;;;23.90;22.07;;;5.60;99.90;8.20;96374.00;;;;4948617;28;20204;-69
2024/03/09 09:54:07;;;;;;;29.03;26.73;;;5.60;99.90;8.10;96355.00;;;;4955038;28;20208;-69
2024/03/09 09:56:57;;;;;;;39.97;36.00;;;5.60;99.90;8.20;96358.00;;;;4946312;28;20231;-68
2024/03/09 09:59:46;;;;;;;37.83;34.33;;;5.60;99.90;8.40;96362.00;;;;4946904;28;20906;-68
2024/03/09 10:02:35;;;;;;;39.30;35.07;;;5.60;99.90;8.50;96365.00;;;;4950553;28;20689;-68
2024/03/09 10:05:29;;;;;;;48.83;40.93;;;5.70;99.90;8.50;96378.00;;;;4954782;28;20677;-67
2024/03/09 10:08:18;;;;;;;38.10;34.60;;;5.70;99.90;8.50;96378.00;;;;4955672;28;20219;-67
2024/03/09 10:11:15;;;;;;;35.70;32.50;;;5.80;99.90;8.60;96374.00;;;;4949621;28;20689;-67
2024/03/09 10:14:05;;;;;;;33.73;30.73;;;5.80;99.90;8.40;96373.00;;;;4952407;28;20222;-68
2024/03/09 10:16:54;;;;;;;32.57;29.63;;;5.80;99.90;8.40;96374.00;;;;4950345;28;20232;-67
2024/03/09 10:19:44;;;;;;;26.60;24.17;;;5.80;99.90;8.20;96380.00;;;;4947696;28;20215;-68
2024/03/09 10:22:34;;;;;;;46.73;41.67;;;5.80;99.90;8.30;96381.00;;;;4954475;28;20219;-68
2024/03/09 10:25:26;;;;;;;53.17;47.37;;;5.80;99.90;7.70;96378.00;;;;4951007;28;20212;-67
2024/03/09 10:28:15;;;;;;;45.83;41.57;;;5.70;99.90;7.80;96384.00;;;;4951888;28;20236;-68
2024/03/09 10:31:05;;;;;;;46.40;42.00;;;5.60;99.90;7.90;96384.00;;;;4945588;28;20207;-67
2024/03/09 10:33:54;;;;;;;55.17;49.37;;;5.60;99.90;8.00;96386.00;;;;4948069;28;20212;-68
2024/03/09 10:36:44;;;;;;;59.23;52.00;;;5.60;99.90;8.00;96381.00;;;;4949587;28;20234;-67
2024/03/09 10:39:35;;;;;;;67.10;55.50;;;5.60;99.90;7.90;96376.00;;;;4950514;28;20704;-67
2024/03/09 10:42:24;;;;;;;56.93;50.83;;;5.60;99.90;8.00;96382.00;;;;4947828;28;20697;-67
2024/03/09 10:45:15;;;;;;;71.77;58.67;;;5.60;99.90;8.20;96388.00;;;;4948187;28;20204;-67
2024/03/09 10:48:09;;;;;;;61.20;54.30;;;5.60;99.90;8.10;96368.00;;;;4948221;28;20604;-67
2024/03/09 10:51:20;;;;;;;70.80;56.67;;;5.70;99.90;8.50;96372.00;;;;4946868;28;20233;-67
2024/03/09 10:54:24;;;;;;;72.13;56.50;;;5.70;99.90;7.80;96369.00;;;;4945993;28;20566;-67
2024/03/09 10:57:21;;;;;;;80.00;60.73;;;5.60;99.90;8.50;96358.00;;;;4949045;28;20220;-67
2024/03/09 11:00:14;;;;;;;92.33;63.40;;;5.70;99.90;8.70;96363.00;;;;4944532;28;20215;-67
2024/03/09 11:03:08;;;;;;;80.33;58.97;;;5.80;99.90;8.70;96370.00;;;;4948686;28;20846;-67
2024/03/09 11:05:59;;;;;;;67.47;56.20;;;5.90;99.90;8.70;96368.00;;;;4946875;28;20628;-67
2024/03/09 11:08:49;;;;;;;93.27;65.60;;;5.90;99.90;8.70;96372.00;;;;4948227;28;20632;-67
2024/03/09 11:11:39;;;;;;;96.70;67.73;;;5.90;99.90;8.70;96369.00;;;;4947443;28;20212;-67
2024/03/09 11:14:33;;;;;;;95.13;68.07;;;6.00;99.90;8.70;96369.00;;;;4950082;28;20216;-67
2024/03/09 11:17:23;;;;;;;55.30;49.40;;;6.00;99.90;8.80;96361.00;;;;4946282;28;20223;-67
2024/03/09 11:20:13;;;;;;;100.53;68.77;;;6.00;99.90;8.80;96364.00;;;;4948438;28;20210;-67
2024/03/09 11:23:02;;;;;;;94.83;65.73;;;6.00;99.90;8.60;96375.00;;;;4947972;28;20212;-67
2024/03/09 11:25:54;;;;;;;124.00;75.87;;;6.10;99.90;8.80;96365.00;;;;4943408;28;20208;-67
2024/03/09 11:29:01;;;;;;;107.70;74.23;;;6.00;99.90;8.60;96365.00;;;;4948112;28;20668;-67
2024/03/09 11:31:58;;;;;;;120.40;71.60;;;6.10;99.90;8.50;96348.00;;;;4948201;28;20270;-67
2024/03/09 11:34:47;;;;;;;122.53;76.03;;;6.10;99.90;8.70;96337.00;;;;4947876;28;20219;-67
2024/03/09 11:37:45;;;;;;;157.60;84.73;;;6.10;99.90;8.70;96345.00;;;;4950517;28;20220;-67
2024/03/09 11:40:35;;;;;;;154.93;88.70;;;6.10;99.90;8.50;96354.00;;;;4948344;28;20883;-67
2024/03/09 11:43:23;;;;;;;176.47;84.23;;;6.10;99.90;8.20;96328.00;;;;4944580;28;20215;-67
2024/03/09 11:46:13;;;;;;;150.27;78.70;;;6.10;99.90;8.50;96328.00;;;;4947805;28;20238;-67
2024/03/09 11:49:04;;;;;;;157.50;79.37;;;6.00;99.90;8.70;96325.00;;;;4944729;28;20224;-67
2024/03/09 11:51:53;;;;;;;162.03;80.70;;;6.00;99.90;8.60;96325.00;;;;4947638;28;20228;-68
2024/03/09 11:54:44;;;;;;;172.70;90.20;;;6.10;99.90;8.50;96325.00;;;;4947235;28;20752;-67
2024/03/09 11:57:38;;;;;;;227.50;94.53;;;6.10;99.90;8.40;96324.00;;;;4944944;28;20232;-67
2024/03/09 12:00:28;;;;;;;228.67;108.90;;;6.10;99.90;8.70;96327.00;;;;4943550;28;20204;-67
2024/03/09 12:03:18;;;;;;;111.53;60.20;;;6.00;99.90;8.70;96333.00;;;;4934110;29;20212;-67
2024/03/09 12:06:08;;;;;;;21.23;17.30;;;6.00;99.90;8.80;96327.00;;;;4944790;28;20231;-67
2024/03/09 12:08:58;;;;;;;16.20;14.00;;;6.10;99.90;8.80;96330.00;;;;4946570;28;20268;-67
2024/03/09 12:11:47;;;;;;;21.03;15.40;;;6.10;99.90;8.90;96315.00;;;;4948008;28;20223;-67
2024/03/09 12:14:36;;;;;;;24.37;17.07;;;6.10;99.90;9.10;96312.00;;;;4951819;28;20215;-67
2024/03/09 12:17:25;;;;;;;15.67;12.30;;;6.20;99.90;9.20;96311.00;;;;4947899;28;20235;-68
2024/03/09 12:20:14;;;;;;;20.80;14.97;;;6.30;99.90;9.20;96315.00;;;;4947399;28;20780;-67
2024/03/09 12:23:12;;;;;;;12.33;11.07;;;6.40;99.90;9.30;96300.00;;;;4949438;28;20204;-67
2024/03/09 12:26:03;;;;;;;15.93;11.53;;;6.40;99.90;9.10;96299.00;;;;4954961;28;20234;-67
2024/03/09 12:28:53;;;;;;;28.47;15.13;;;6.50;99.90;8.70;96302.00;;;;4948352;28;20239;-68
2024/03/09 12:31:44;;;;;;;26.83;14.93;;;6.40;99.90;8.80;96305.00;;;;4950539;28;20917;-67
2024/03/09 12:34:33;;;;;;;24.10;13.03;;;6.30;99.90;8.80;96295.00;;;;4946657;28;20691;-67
2024/03/09 12:37:27;;;;;;;22.40;13.73;;;6.30;99.90;9.10;96310.00;;;;4949892;28;20229;-67